createdAt,value
2022-12-01T00:01:16.146Z,7.25
2022-12-01T00:03:43.191Z,7.45
2022-12-01T00:06:15.933Z,7.43
2022-12-01T00:09:02.184Z,7.40
2022-12-01T00:11:28.732Z,7.25
2022-12-01T00:13:55.329Z,7.47
2022-12-01T00:16:22.190Z,7.45
2022-12-01T00:18:53.437Z,7.03
2022-12-01T00:21:23.698Z,7.38
2022-12-01T00:23:53.130Z,8.07
2022-12-01T00:26:21.933Z,7.68
2022-12-01T00:28:50.357Z,7.80
2022-12-01T00:31:17.495Z,7.57
2022-12-01T00:33:44.044Z,7.18
2022-12-01T00:36:10.725Z,7.65
2022-12-01T00:38:37.859Z,7.90
2022-12-01T00:41:05.221Z,8.30
2022-12-01T00:43:32.467Z,8.00
2022-12-01T00:45:59.298Z,7.60
2022-12-01T00:48:25.906Z,8.35
2022-12-01T00:50:54.112Z,7.85
2022-12-01T00:53:21.035Z,7.70
2022-12-01T00:55:48.101Z,7.43
2022-12-01T00:58:14.944Z,8.85
2022-12-01T01:00:42.894Z,7.90
2022-12-01T01:03:10.854Z,7.85
2022-12-01T01:05:42.211Z,8.05
2022-12-01T01:08:14.860Z,7.97
2022-12-01T01:10:44.089Z,7.95
2022-12-01T01:13:12.483Z,8.75
2022-12-01T01:15:40.206Z,8.32
2022-12-01T01:18:09.555Z,8.73
2022-12-01T01:20:36.157Z,8.25
2022-12-01T01:23:03.595Z,8.43
2022-12-01T01:25:32.260Z,8.38
2022-12-01T01:27:59.308Z,9.40
2022-12-01T01:30:26.305Z,8.63
2022-12-01T01:32:52.839Z,8.20
2022-12-01T01:35:19.354Z,9.00
2022-12-01T01:37:46.356Z,8.13
2022-12-01T01:40:12.926Z,9.30
2022-12-01T01:42:39.496Z,8.38
2022-12-01T01:45:19.527Z,9.10
2022-12-01T01:47:46.133Z,8.65
2022-12-01T01:50:17.045Z,9.02
2022-12-01T01:52:48.745Z,8.77
2022-12-01T01:55:16.368Z,8.30
2022-12-01T01:57:44.761Z,8.85
2022-12-01T02:00:14.685Z,8.70
2022-12-01T02:02:46.015Z,9.20
2022-12-01T02:05:24.107Z,8.73
2022-12-01T02:07:53.896Z,8.40
2022-12-01T02:10:24.527Z,9.52
2022-12-01T02:13:08.747Z,9.02
2022-12-01T02:15:44.803Z,8.90
2022-12-01T02:18:43.905Z,8.80
2022-12-01T02:21:22.638Z,9.20
2022-12-01T02:24:10.844Z,8.85
2022-12-01T02:27:21.664Z,8.70
2022-12-01T02:30:16.694Z,8.82
2022-12-01T02:32:48.900Z,8.50
2022-12-01T02:35:28.422Z,9.00
2022-12-01T02:38:14.286Z,9.18
2022-12-01T02:40:43.290Z,8.50
2022-12-01T02:43:14.121Z,8.93
2022-12-01T02:45:54.242Z,9.45
2022-12-01T02:48:33.808Z,9.45
2022-12-01T02:51:07.886Z,8.20
2022-12-01T02:53:35.242Z,8.48
2022-12-01T02:56:07.139Z,8.98
2022-12-01T02:58:33.689Z,8.73
2022-12-01T03:01:18.575Z,8.45
2022-12-01T03:04:01.963Z,9.00
2022-12-01T03:06:44.156Z,8.60
2022-12-01T03:09:38.538Z,8.80
2022-12-01T03:12:10.849Z,9.15
2022-12-01T03:14:45.860Z,8.80
2022-12-01T03:17:17.354Z,8.65
2022-12-01T03:19:50.859Z,9.05
2022-12-01T03:22:25.802Z,8.65
2022-12-01T03:24:54.654Z,9.18
2022-12-01T03:27:25.948Z,9.32
2022-12-01T03:29:56.368Z,9.07
2022-12-01T03:32:31.988Z,8.55
2022-12-01T03:35:16.173Z,9.73
2022-12-01T03:37:53.526Z,9.57
2022-12-01T03:40:25.573Z,9.75
2022-12-01T03:43:04.313Z,8.60
2022-12-01T03:45:34.102Z,8.90
2022-12-01T03:48:01.048Z,9.00
2022-12-01T03:50:48.448Z,8.80
2022-12-01T03:53:21.596Z,9.13
2022-12-01T03:55:56.685Z,9.07
2022-12-01T03:58:28.792Z,8.82
2022-12-01T04:00:57.611Z,9.57
2022-12-01T04:03:26.675Z,9.07
2022-12-01T04:05:54.244Z,8.77
2022-12-01T04:08:21.230Z,9.05
2022-12-01T04:10:48.228Z,9.48
2022-12-01T04:13:23.270Z,9.13
2022-12-01T04:15:52.027Z,8.20
2022-12-01T04:18:20.228Z,9.20
2022-12-01T04:20:48.594Z,10.30
2022-12-01T04:23:35.568Z,9.20
2022-12-01T04:26:04.365Z,9.18
2022-12-01T04:28:31.732Z,9.30
2022-12-01T04:30:58.387Z,9.57
2022-12-01T04:33:24.986Z,9.05
2022-12-01T04:36:00.117Z,9.40
2022-12-01T04:38:30.547Z,9.07
2022-12-01T04:40:58.112Z,9.40
2022-12-01T04:43:24.819Z,9.07
2022-12-01T04:45:51.880Z,9.65
2022-12-01T04:48:18.519Z,9.65
2022-12-01T04:50:45.017Z,9.35
2022-12-01T04:53:12.040Z,8.48
2022-12-01T04:55:39.308Z,9.10
2022-12-01T04:58:06.276Z,9.30
2022-12-01T05:00:33.377Z,10.02
2022-12-01T05:03:01.017Z,9.38
2022-12-01T05:05:28.177Z,9.80
2022-12-01T05:07:54.831Z,8.95
2022-12-01T05:10:22.278Z,10.20
2022-12-01T05:12:49.425Z,8.93
2022-12-01T05:15:16.702Z,9.88
2022-12-01T05:17:43.963Z,9.73
2022-12-01T05:20:38.369Z,9.15
2022-12-01T05:23:06.562Z,8.65
2022-12-01T05:25:34.025Z,9.63
2022-12-01T05:28:01.036Z,9.35
2022-12-01T05:30:28.986Z,9.00
2022-12-01T05:32:55.706Z,9.40
2022-12-01T05:35:22.706Z,8.75
2022-12-01T05:37:49.208Z,9.35
2022-12-01T05:40:15.923Z,9.23
2022-12-01T05:42:42.967Z,9.13
2022-12-01T05:45:10.071Z,9.52
2022-12-01T05:47:37.118Z,10.02
2022-12-01T05:50:06.022Z,9.73
2022-12-01T05:52:36.832Z,9.50
2022-12-01T05:55:04.718Z,9.50
2022-12-01T05:57:32.521Z,9.32
2022-12-01T05:59:59.268Z,9.27
2022-12-01T06:02:29.046Z,8.95
2022-12-01T06:04:55.605Z,9.38
2022-12-01T06:07:23.606Z,9.13
2022-12-01T06:09:50.433Z,9.70
2022-12-01T06:12:17.648Z,9.38
2022-12-01T06:14:44.679Z,9.27
2022-12-01T06:17:12.204Z,9.52
2022-12-01T06:19:39.301Z,9.35
2022-12-01T06:22:06.397Z,9.30
2022-12-01T06:24:32.912Z,9.05
2022-12-01T06:27:00.011Z,9.52
2022-12-01T06:29:26.623Z,8.40
2022-12-01T06:31:53.219Z,8.32
2022-12-01T06:34:20.295Z,8.55
2022-12-01T06:36:46.812Z,8.95
2022-12-01T06:39:16.084Z,8.27
2022-12-01T06:41:43.591Z,8.75
2022-12-01T06:44:11.624Z,8.65
2022-12-01T06:46:38.203Z,8.88
2022-12-01T06:49:05.037Z,8.70
2022-12-01T06:51:33.849Z,8.52
2022-12-01T06:54:05.239Z,8.95
2022-12-01T06:56:32.301Z,8.48
2022-12-01T06:58:59.121Z,9.25
2022-12-01T07:01:26.741Z,8.25
2022-12-01T07:03:53.937Z,8.93
2022-12-01T07:06:21.236Z,8.77
2022-12-01T07:08:47.796Z,8.70
2022-12-01T07:11:15.730Z,9.10
2022-12-01T07:13:45.443Z,9.57
2022-12-01T07:16:12.432Z,8.95
2022-12-01T07:18:41.014Z,9.35
2022-12-01T07:21:11.438Z,9.35
2022-12-01T07:23:38.054Z,9.35
2022-12-01T07:26:07.403Z,8.77
2022-12-01T07:28:34.328Z,8.80
2022-12-01T07:31:04.269Z,9.38
2022-12-01T07:33:31.321Z,8.50
2022-12-01T07:35:58.318Z,9.45
2022-12-01T07:38:25.306Z,9.57
2022-12-01T07:40:52.366Z,10.20
2022-12-01T07:43:18.894Z,10.88
2022-12-01T07:45:45.533Z,11.60
2022-12-01T07:48:12.148Z,10.73
2022-12-01T07:50:39.200Z,12.05
2022-12-01T07:53:06.142Z,12.05
2022-12-01T07:55:32.707Z,11.00
2022-12-01T07:58:00.670Z,11.50
2022-12-01T08:00:27.401Z,12.02
2022-12-01T08:02:54.735Z,11.43
2022-12-01T08:05:21.813Z,12.95
2022-12-01T08:07:48.943Z,11.80
2022-12-01T08:10:15.705Z,12.10
2022-12-01T08:12:43.606Z,12.05
2022-12-01T08:15:10.579Z,11.85
2022-12-01T08:17:37.141Z,12.57
2022-12-01T08:20:04.487Z,12.77
2022-12-01T08:22:31.065Z,12.77
2022-12-01T08:24:57.555Z,12.02
2022-12-01T08:27:24.642Z,12.27
2022-12-01T08:29:51.394Z,11.95
2022-12-01T08:32:18.508Z,12.38
2022-12-01T08:34:49.334Z,11.25
2022-12-01T08:37:19.595Z,11.70
2022-12-01T08:39:46.144Z,10.80
2022-12-01T08:42:13.098Z,11.02
2022-12-01T08:44:39.855Z,11.45
2022-12-01T08:47:06.642Z,10.90
2022-12-01T08:49:33.269Z,10.75
2022-12-01T08:51:59.805Z,11.05
2022-12-01T08:54:26.953Z,10.32
2022-12-01T08:56:53.503Z,10.75
2022-12-01T08:59:20.095Z,10.38
2022-12-01T09:01:53.247Z,10.00
2022-12-01T09:04:21.810Z,10.23
2022-12-01T09:06:50.477Z,10.57
2022-12-01T09:09:23.580Z,9.88
2022-12-01T09:11:52.360Z,10.00
2022-12-01T09:14:21.088Z,9.70
2022-12-01T09:16:49.933Z,9.20
2022-12-01T09:19:24.023Z,9.45
2022-12-01T09:21:52.463Z,10.38
2022-12-01T09:24:19.477Z,9.43
2022-12-01T09:26:46.192Z,8.98
2022-12-01T09:29:15.275Z,8.80
2022-12-01T09:31:43.192Z,9.45
2022-12-01T09:34:20.298Z,9.25
2022-12-01T09:36:47.790Z,8.82
2022-12-01T09:39:20.134Z,9.20
2022-12-01T09:41:48.214Z,8.70
2022-12-01T09:44:34.369Z,9.32
2022-12-01T09:47:11.915Z,8.88
2022-12-01T09:50:03.519Z,9.30
2022-12-01T09:52:38.519Z,10.38
2022-12-01T09:55:11.917Z,9.10
2022-12-01T09:57:40.392Z,9.02
2022-12-01T10:00:15.938Z,9.25
2022-12-01T10:03:06.565Z,8.77
2022-12-01T10:06:24.617Z,8.93
2022-12-01T10:08:42.468Z,9.02
2022-12-01T10:11:24.553Z,9.40
2022-12-01T10:13:51.162Z,8.82
2022-12-01T10:16:29.125Z,8.73
2022-12-01T10:19:01.290Z,8.27
2022-12-01T10:21:30.893Z,8.18
2022-12-01T10:24:24.151Z,8.60
2022-12-01T10:27:26.018Z,8.32
2022-12-01T10:30:08.855Z,8.40
2022-12-01T10:32:58.736Z,8.38
2022-12-01T10:35:36.023Z,8.00
2022-12-01T10:38:06.892Z,8.75
2022-12-01T10:40:36.857Z,8.68
2022-12-01T10:43:03.910Z,7.63
2022-12-01T10:45:40.638Z,8.68
2022-12-01T10:48:15.846Z,8.07
2022-12-01T10:50:52.326Z,8.50
2022-12-01T10:53:33.629Z,7.35
2022-12-01T10:56:18.367Z,8.38
2022-12-01T10:58:51.373Z,8.60
2022-12-01T11:01:26.893Z,7.57
2022-12-01T11:04:21.764Z,8.60
2022-12-01T11:06:51.589Z,7.85
2022-12-01T11:09:26.178Z,8.23
2022-12-01T11:12:01.739Z,8.23
2022-12-01T11:14:41.008Z,7.63
2022-12-01T11:17:25.080Z,7.43
2022-12-01T11:19:52.482Z,7.70
2022-12-01T11:22:29.111Z,7.50
2022-12-01T11:25:02.979Z,8.10
2022-12-01T11:27:35.064Z,7.95
2022-12-01T11:30:06.725Z,7.38
2022-12-01T11:32:37.996Z,8.07
2022-12-01T11:35:18.395Z,7.28
2022-12-01T11:38:13.161Z,7.45
2022-12-01T11:40:51.642Z,7.75
2022-12-01T11:43:53.268Z,7.63
2022-12-01T11:46:46.245Z,7.65
2022-12-01T11:49:22.073Z,7.78
2022-12-01T11:51:49.294Z,7.50
2022-12-01T11:54:24.549Z,7.43
2022-12-01T11:57:25.318Z,7.25
2022-12-01T11:59:39.661Z,6.78
2022-12-01T12:02:27.441Z,7.43
2022-12-01T12:05:06.633Z,7.65
2022-12-01T12:07:54.543Z,7.07
2022-12-01T12:10:31.665Z,7.43
2022-12-01T12:13:16.944Z,6.97
2022-12-01T12:16:11.886Z,6.90
2022-12-01T12:19:03.502Z,7.18
2022-12-01T12:22:18.255Z,6.63
2022-12-01T12:25:00.496Z,6.88
2022-12-01T12:28:26.881Z,6.82
2022-12-01T12:31:18.779Z,6.97
2022-12-01T12:34:19.324Z,7.03
2022-12-01T12:36:58.636Z,6.85
2022-12-01T12:40:03.406Z,6.90
2022-12-01T12:42:59.111Z,6.10
2022-12-01T12:45:45.134Z,6.28
2022-12-01T12:48:11.664Z,6.45
2022-12-01T12:51:03.506Z,6.40
2022-12-01T12:53:41.540Z,6.55
2022-12-01T12:56:12.820Z,6.60
2022-12-01T12:58:58.215Z,6.35
2022-12-01T13:02:03.036Z,6.50
2022-12-01T13:04:40.632Z,6.35
2022-12-01T13:07:14.735Z,5.95
2022-12-01T13:09:49.180Z,6.40
2022-12-01T13:12:25.437Z,6.07
2022-12-01T13:15:16.467Z,6.75
2022-12-01T13:17:49.769Z,6.45
2022-12-01T13:20:20.416Z,6.28
2022-12-01T13:22:48.121Z,6.00
2022-12-01T13:25:19.419Z,6.43
2022-12-01T13:27:47.664Z,6.25
2022-12-01T13:30:24.706Z,6.70
2022-12-01T13:33:01.349Z,6.03
2022-12-01T13:35:32.227Z,6.10
2022-12-01T13:38:31.796Z,6.22
2022-12-01T13:41:20.399Z,5.97
2022-12-01T13:44:00.671Z,5.82
2022-12-01T13:46:34.137Z,6.07
2022-12-01T13:49:04.495Z,5.75
2022-12-01T13:52:14.169Z,5.80
2022-12-01T13:55:01.178Z,5.43
2022-12-01T13:57:33.247Z,6.35
2022-12-01T13:59:59.709Z,5.75
2022-12-01T14:02:28.766Z,5.80
2022-12-01T14:04:55.451Z,5.55
2022-12-01T14:07:36.024Z,5.50
2022-12-01T14:10:30.111Z,5.55
2022-12-01T14:13:01.854Z,5.38
2022-12-01T14:15:42.369Z,6.32
2022-12-01T14:18:18.433Z,5.30
2022-12-01T14:23:13.169Z,5.25
2022-12-01T14:25:41.321Z,5.18
2022-12-01T14:28:16.895Z,5.10
2022-12-01T14:30:46.434Z,5.25
2022-12-01T14:33:51.149Z,5.40
2022-12-01T14:36:23.506Z,5.43
2022-12-01T14:39:03.917Z,4.90
2022-12-01T14:41:37.003Z,5.32
2022-12-01T14:44:12.799Z,5.10
2022-12-01T14:49:33.066Z,5.22
2022-12-01T14:52:05.542Z,5.07
2022-12-01T14:54:44.766Z,4.57
2022-12-01T14:57:16.947Z,4.88
2022-12-01T14:59:44.605Z,4.75
2022-12-01T15:02:12.607Z,5.47
2022-12-01T15:05:09.813Z,5.03
2022-12-01T15:07:39.457Z,5.35
2022-12-01T15:10:07.868Z,4.70
2022-12-01T15:12:34.865Z,4.80
2022-12-01T15:15:02.707Z,5.20
2022-12-01T15:17:31.249Z,5.22
2022-12-01T15:19:59.253Z,4.30
2022-12-01T15:22:31.056Z,4.47
2022-12-01T15:25:13.859Z,4.70
2022-12-01T15:27:40.504Z,4.20
2022-12-01T15:30:13.553Z,4.57
2022-12-01T15:32:45.727Z,4.43
2022-12-01T15:35:20.177Z,4.63
2022-12-01T15:37:47.040Z,4.32
2022-12-01T15:41:06.055Z,4.38
2022-12-01T15:43:17.174Z,4.13
2022-12-01T15:45:49.443Z,4.32
2022-12-01T15:48:24.407Z,4.20
2022-12-01T15:51:20.159Z,3.97
2022-12-01T15:54:16.188Z,4.27
2022-12-01T15:56:42.822Z,4.20
2022-12-01T15:59:12.316Z,3.92
2022-12-01T16:01:40.570Z,4.55
2022-12-01T16:04:17.640Z,4.43
2022-12-01T16:06:54.379Z,3.92
2022-12-01T16:09:26.315Z,4.35
2022-12-01T16:12:14.423Z,4.15
2022-12-01T16:15:06.851Z,4.07
2022-12-01T16:17:51.017Z,3.97
2022-12-01T16:20:26.257Z,4.20
2022-12-01T16:22:59.089Z,3.88
2022-12-01T16:25:32.959Z,3.72
2022-12-01T16:27:59.813Z,4.47
2022-12-01T16:30:48.940Z,4.50
2022-12-01T16:33:19.566Z,4.00
2022-12-01T16:35:46.157Z,4.35
2022-12-01T16:38:20.590Z,3.70
2022-12-01T16:40:49.528Z,4.32
2022-12-01T16:43:21.229Z,3.63
2022-12-01T16:45:55.444Z,3.85
2022-12-01T16:48:22.324Z,3.75
2022-12-01T16:50:50.789Z,4.13
2022-12-01T16:53:17.869Z,3.95
2022-12-01T16:55:50.157Z,3.95
2022-12-01T16:58:17.207Z,3.95
2022-12-01T17:00:43.986Z,3.85
2022-12-01T17:03:16.289Z,3.53
2022-12-01T17:05:43.040Z,4.07
2022-12-01T17:08:09.639Z,4.28
2022-12-01T17:10:40.002Z,3.63
2022-12-01T17:13:06.574Z,3.97
2022-12-01T17:15:33.236Z,4.50
2022-12-01T17:18:00.270Z,3.80
2022-12-01T17:20:26.854Z,4.03
2022-12-01T17:22:53.380Z,4.10
2022-12-01T17:25:20.040Z,3.97
2022-12-01T17:27:46.715Z,3.83
2022-12-01T17:30:13.492Z,4.00
2022-12-01T17:32:40.068Z,3.85
2022-12-01T17:35:06.986Z,4.00
2022-12-01T17:37:33.701Z,3.67
2022-12-01T17:40:00.299Z,3.80
2022-12-01T17:42:26.951Z,3.47
2022-12-01T17:44:53.468Z,4.07
2022-12-01T17:47:20.466Z,4.03
2022-12-01T17:49:46.984Z,4.00
2022-12-01T17:52:14.196Z,4.50
2022-12-01T17:54:40.803Z,4.03
2022-12-01T17:57:07.525Z,4.45
2022-12-01T17:59:36.722Z,3.90
2022-12-01T18:02:06.872Z,4.07
2022-12-01T18:04:34.108Z,4.40
2022-12-01T18:07:00.704Z,4.15
2022-12-01T18:09:27.745Z,4.20
2022-12-01T18:11:56.290Z,4.57
2022-12-01T18:14:24.117Z,3.95
2022-12-01T18:16:51.653Z,4.25
2022-12-01T18:19:19.600Z,4.30
2022-12-01T18:21:46.829Z,4.32
2022-12-01T18:24:13.489Z,4.28
2022-12-01T18:26:40.988Z,4.05
2022-12-01T18:29:12.862Z,4.00
2022-12-01T18:31:40.730Z,4.15
2022-12-01T18:34:09.037Z,4.63
2022-12-01T18:36:37.707Z,3.95
2022-12-01T18:39:06.779Z,4.22
2022-12-01T18:41:34.457Z,3.85
2022-12-01T18:44:01.169Z,4.20
2022-12-01T18:46:27.823Z,4.80
2022-12-01T18:49:02.937Z,3.85
2022-12-01T18:51:31.148Z,4.38
2022-12-01T18:53:59.440Z,4.13
2022-12-01T18:56:26.737Z,4.15
2022-12-01T18:58:58.379Z,4.55
2022-12-01T19:01:27.777Z,4.35
2022-12-01T19:03:55.761Z,4.82
2022-12-01T19:06:22.695Z,4.18
2022-12-01T19:08:49.335Z,4.00
2022-12-01T19:11:16.627Z,4.43
2022-12-01T19:13:43.837Z,4.68
2022-12-01T19:16:13.818Z,4.75
2022-12-01T19:18:40.453Z,4.22
2022-12-01T19:21:10.805Z,4.50
2022-12-01T19:23:38.267Z,4.07
2022-12-01T19:26:11.120Z,4.22
2022-12-01T19:28:38.477Z,4.32
2022-12-01T19:31:11.222Z,3.97
2022-12-01T19:33:38.192Z,4.28
2022-12-01T19:36:10.308Z,4.18
2022-12-01T19:38:36.985Z,4.30
2022-12-01T19:41:03.776Z,4.20
2022-12-01T19:43:30.336Z,3.95
2022-12-01T19:45:56.894Z,3.88
2022-12-01T19:48:23.525Z,4.32
2022-12-01T19:50:50.526Z,4.50
2022-12-01T19:53:17.088Z,3.85
2022-12-01T19:55:43.632Z,4.65
2022-12-01T19:58:10.224Z,4.00
2022-12-01T20:00:36.880Z,4.05
2022-12-01T20:03:03.889Z,4.10
2022-12-01T20:05:32.518Z,4.35
2022-12-01T20:07:59.198Z,4.05
2022-12-01T20:10:26.250Z,4.35
2022-12-01T20:12:52.915Z,3.88
2022-12-01T20:15:19.624Z,4.10
2022-12-01T20:17:46.237Z,3.80
2022-12-01T20:20:13.186Z,4.00
2022-12-01T20:22:40.744Z,4.82
2022-12-01T20:25:09.494Z,4.13
2022-12-01T20:27:36.446Z,4.13
2022-12-01T20:30:03.074Z,3.45
2022-12-01T20:32:29.694Z,4.03
2022-12-01T20:34:56.250Z,4.50
2022-12-01T20:37:22.821Z,3.75
2022-12-01T20:39:49.819Z,4.35
2022-12-01T20:42:19.302Z,4.07
2022-12-01T20:44:46.417Z,4.05
2022-12-01T20:47:14.643Z,3.92
2022-12-01T20:49:41.201Z,3.83
2022-12-01T20:52:07.781Z,4.65
2022-12-01T20:54:34.838Z,4.18
2022-12-01T20:57:01.532Z,4.10
2022-12-01T20:59:28.518Z,4.20
2022-12-01T21:01:55.476Z,4.50
2022-12-01T21:04:22.589Z,4.57
2022-12-01T21:06:50.041Z,4.10
2022-12-01T21:09:16.884Z,4.38
2022-12-01T21:12:06.829Z,4.18
2022-12-01T21:14:36.807Z,4.53
2022-12-01T21:17:29.820Z,4.03
2022-12-01T21:20:01.657Z,4.05
2022-12-01T21:22:28.281Z,5.10
2022-12-01T21:25:03.304Z,4.45
2022-12-01T21:27:30.505Z,4.25
2022-12-01T21:29:57.506Z,4.10
2022-12-01T21:32:31.839Z,4.18
2022-12-01T21:35:07.817Z,4.10
2022-12-01T21:37:34.848Z,4.85
2022-12-01T21:40:01.930Z,4.53
2022-12-01T21:42:31.410Z,4.55
2022-12-01T21:44:58.464Z,4.43
2022-12-01T21:47:30.135Z,4.35
2022-12-01T21:49:58.928Z,4.07
2022-12-01T21:52:34.549Z,4.63
2022-12-01T21:55:30.740Z,4.40
2022-12-01T21:57:57.245Z,4.85
2022-12-01T22:00:27.138Z,4.22
2022-12-01T22:03:06.219Z,5.03
2022-12-01T22:05:42.216Z,4.30
2022-12-01T22:08:15.067Z,5.28
2022-12-01T22:10:59.006Z,4.68
2022-12-01T22:13:42.022Z,5.05
2022-12-01T22:16:34.995Z,5.07
2022-12-01T22:19:16.529Z,5.40
2022-12-01T22:21:48.115Z,5.25
2022-12-01T22:24:20.496Z,5.05
2022-12-01T22:26:49.852Z,5.28
2022-12-01T22:29:29.440Z,5.15
2022-12-01T22:32:16.228Z,5.78
2022-12-01T22:34:50.295Z,5.30
2022-12-01T22:37:25.365Z,5.32
2022-12-01T22:39:55.503Z,5.15
2022-12-01T22:42:43.242Z,5.53
2022-12-01T22:45:24.418Z,5.47
2022-12-01T22:47:56.353Z,6.10
2022-12-01T22:50:33.041Z,5.13
2022-12-01T22:53:09.517Z,5.65
2022-12-01T22:55:36.768Z,5.68
2022-12-01T22:58:25.508Z,6.30
2022-12-01T23:00:53.984Z,5.85
2022-12-01T23:03:21.159Z,6.35
2022-12-01T23:05:55.388Z,6.45
2022-12-01T23:08:24.239Z,6.45
2022-12-01T23:10:52.604Z,6.63
2022-12-01T23:13:22.250Z,6.65
2022-12-01T23:15:53.613Z,7.90
2022-12-01T23:18:23.824Z,7.82
2022-12-01T23:20:55.952Z,7.50
2022-12-01T23:23:34.497Z,7.72
2022-12-01T23:26:07.306Z,7.68
2022-12-01T23:28:37.047Z,7.35
2022-12-01T23:31:04.133Z,8.18
2022-12-01T23:33:35.080Z,8.52
2022-12-01T23:36:19.327Z,8.55
2022-12-01T23:38:52.878Z,8.90
2022-12-01T23:41:28.767Z,8.38
2022-12-01T23:46:26.936Z,8.85
2022-12-01T23:48:59.159Z,8.60
2022-12-01T23:51:30.920Z,8.85
2022-12-01T23:54:00.933Z,8.70
2022-12-01T23:56:31.017Z,8.65
2022-12-01T23:59:00.937Z,8.93
